Terminal Aerodrome Forecast
Issued by NWS

Home | Current Version | Previous Version | Graphics & Text | Print | Product List | Glossary On
Versions: 1 2 3 4 5 6 7 8 9 10 11 12 13 14 15 16 17 18 19 20 21 22 23 24 25 26 27 28 29 30 31 32 33 34 35 36
000
FTUS43 KLSX 010352 AAD
TAFSUS
TAF AMD
KSUS 010352Z 0104/0124 VRB04KT P6SM VCTS SCT040CB BKN100
      TEMPO 0104/0105 3SM TSRA OVC025CB
     FM010600 27005KT 4SM BR SCT060
     FM011500 29009KT P6SM BKN040=

USA.gov is the U.S. government's official web portal to all federal, state and local government web resources and services.